sensor_id;sensor_type;location;lat;lon;timestamp;pressure;altitude;pressure_sealevel;temperature;humidity
24280;BME280;12395;42.808;23.408;2023-03-04T00:01:03;94945.91;;;3.84;100.00
24280;BME280;12395;42.808;23.408;2023-03-04T00:03:28;94942.28;;;3.85;100.00
24280;BME280;12395;42.808;23.408;2023-03-04T00:05:53;94946.22;;;3.97;100.00
24280;BME280;12395;42.808;23.408;2023-03-04T00:08:18;94942.28;;;4.01;100.00
24280;BME280;12395;42.808;23.408;2023-03-04T00:10:44;94942.56;;;4.14;100.00
24280;BME280;12395;42.808;23.408;2023-03-04T00:13:09;94947.16;;;4.20;100.00
24280;BME280;12395;42.808;23.408;2023-03-04T00:15:34;94949.09;;;4.26;100.00
24280;BME280;12395;42.808;23.408;2023-03-04T00:18:00;94933.69;;;4.31;100.00
24280;BME280;12395;42.808;23.408;2023-03-04T00:20:25;94930.06;;;4.32;100.00
24280;BME280;12395;42.808;23.408;2023-03-04T00:22:50;94933.38;;;4.18;100.00
24280;BME280;12395;42.808;23.408;2023-03-04T00:25:15;94936.00;;;4.18;100.00
24280;BME280;12395;42.808;23.408;2023-03-04T00:27:41;94933.53;;;4.25;100.00
24280;BME280;12395;42.808;23.408;2023-03-04T00:30:06;94930.75;;;4.18;100.00
24280;BME280;12395;42.808;23.408;2023-03-04T00:32:32;94928.94;;;4.27;100.00
24280;BME280;12395;42.808;23.408;2023-03-04T00:34:57;94923.88;;;4.25;100.00
24280;BME280;12395;42.808;23.408;2023-03-04T00:37:22;94926.78;;;4.30;100.00
24280;BME280;12395;42.808;23.408;2023-03-04T00:39:48;94925.31;;;4.36;100.00
24280;BME280;12395;42.808;23.408;2023-03-04T00:42:13;94932.00;;;4.46;100.00
24280;BME280;12395;42.808;23.408;2023-03-04T00:44:38;94922.81;;;4.50;100.00
24280;BME280;12395;42.808;23.408;2023-03-04T00:47:03;94920.31;;;4.57;100.00
24280;BME280;12395;42.808;23.408;2023-03-04T00:49:29;94906.38;;;4.56;100.00
24280;BME280;12395;42.808;23.408;2023-03-04T00:51:54;94907.38;;;4.55;100.00
24280;BME280;12395;42.808;23.408;2023-03-04T00:54:19;94907.84;;;4.59;100.00
24280;BME280;12395;42.808;23.408;2023-03-04T00:56:45;94907.66;;;4.60;100.00
24280;BME280;12395;42.808;23.408;2023-03-04T00:59:10;94908.66;;;4.59;100.00
24280;BME280;12395;42.808;23.408;2023-03-04T01:01:36;94906.50;;;4.63;100.00
24280;BME280;12395;42.808;23.408;2023-03-04T01:04:01;94909.97;;;4.63;100.00
24280;BME280;12395;42.808;23.408;2023-03-04T01:06:26;94900.75;;;4.67;100.00
24280;BME280;12395;42.808;23.408;2023-03-04T01:08:52;94903.25;;;4.61;100.00
24280;BME280;12395;42.808;23.408;2023-03-04T01:11:17;94899.50;;;4.55;100.00
24280;BME280;12395;42.808;23.408;2023-03-04T01:13:42;94901.81;;;4.50;100.00
24280;BME280;12395;42.808;23.408;2023-03-04T01:16:08;94904.25;;;4.52;100.00
24280;BME280;12395;42.808;23.408;2023-03-04T01:18:34;94891.13;;;4.52;100.00
24280;BME280;12395;42.808;23.408;2023-03-04T01:21:00;94896.19;;;4.61;100.00
24280;BME280;12395;42.808;23.408;2023-03-04T01:23:25;94895.31;;;4.69;100.00
24280;BME280;12395;42.808;23.408;2023-03-04T01:25:50;94893.84;;;4.75;100.00
24280;BME280;12395;42.808;23.408;2023-03-04T01:28:15;94877.56;;;4.79;100.00
24280;BME280;12395;42.808;23.408;2023-03-04T01:30:41;94882.94;;;4.86;100.00
24280;BME280;12395;42.808;23.408;2023-03-04T01:33:06;94879.38;;;4.79;100.00
24280;BME280;12395;42.808;23.408;2023-03-04T01:35:31;94876.13;;;4.77;100.00
24280;BME280;12395;42.808;23.408;2023-03-04T01:37:57;94881.75;;;4.65;100.00
24280;BME280;12395;42.808;23.408;2023-03-04T01:40:22;94879.13;;;4.65;100.00
24280;BME280;12395;42.808;23.408;2023-03-04T01:42:47;94884.00;;;4.68;100.00
24280;BME280;12395;42.808;23.408;2023-03-04T01:45:16;94874.47;;;4.76;100.00
24280;BME280;12395;42.808;23.408;2023-03-04T01:47:46;94876.25;;;4.83;100.00
24280;BME280;12395;42.808;23.408;2023-03-04T01:50:28;94879.13;;;4.88;100.00
24280;BME280;12395;42.808;23.408;2023-03-04T01:52:55;94881.06;;;4.94;100.00
24280;BME280;12395;42.808;23.408;2023-03-04T01:55:21;94880.91;;;4.96;100.00
24280;BME280;12395;42.808;23.408;2023-03-04T01:57:47;94875.31;;;4.99;100.00
24280;BME280;12395;42.808;23.408;2023-03-04T02:00:21;94867.28;;;5.00;100.00
24280;BME280;12395;42.808;23.408;2023-03-04T02:02:47;94868.72;;;5.03;100.00
24280;BME280;12395;42.808;23.408;2023-03-04T02:05:14;94871.34;;;5.03;100.00
24280;BME280;12395;42.808;23.408;2023-03-04T02:07:39;94871.34;;;5.03;100.00
24280;BME280;12395;42.808;23.408;2023-03-04T02:10:05;94860.56;;;4.98;100.00
24280;BME280;12395;42.808;23.408;2023-03-04T02:12:30;94858.16;;;4.88;100.00
24280;BME280;12395;42.808;23.408;2023-03-04T02:14:55;94863.56;;;4.87;100.00
24280;BME280;12395;42.808;23.408;2023-03-04T02:17:27;94853.38;;;4.92;100.00
24280;BME280;12395;42.808;23.408;2023-03-04T02:22:27;94856.03;;;4.84;100.00
24280;BME280;12395;42.808;23.408;2023-03-04T02:24:56;94853.91;;;4.87;100.00
24280;BME280;12395;42.808;23.408;2023-03-04T02:27:24;94856.00;;;4.92;100.00
24280;BME280;12395;42.808;23.408;2023-03-04T02:29:49;94855.00;;;4.93;100.00
24280;BME280;12395;42.808;23.408;2023-03-04T02:32:15;94849.81;;;4.85;100.00
24280;BME280;12395;42.808;23.408;2023-03-04T02:34:46;94854.94;;;4.78;100.00
24280;BME280;12395;42.808;23.408;2023-03-04T02:37:12;94857.03;;;4.83;100.00
24280;BME280;12395;42.808;23.408;2023-03-04T02:39:39;94853.41;;;4.84;100.00
24280;BME280;12395;42.808;23.408;2023-03-04T02:42:05;94854.75;;;4.80;100.00
24280;BME280;12395;42.808;23.408;2023-03-04T02:44:31;94847.91;;;4.70;100.00
24280;BME280;12395;42.808;23.408;2023-03-04T02:46:58;94852.94;;;4.80;100.00
24280;BME280;12395;42.808;23.408;2023-03-04T02:49:24;94847.41;;;4.75;100.00
24280;BME280;12395;42.808;23.408;2023-03-04T02:51:58;94849.16;;;4.83;100.00
24280;BME280;12395;42.808;23.408;2023-03-04T02:54:23;94850.78;;;4.84;100.00
24280;BME280;12395;42.808;23.408;2023-03-04T02:56:54;94847.00;;;4.86;100.00
24280;BME280;12395;42.808;23.408;2023-03-04T02:59:20;94849.44;;;4.88;100.00
24280;BME280;12395;42.808;23.408;2023-03-04T03:01:46;94842.53;;;4.95;100.00
24280;BME280;12395;42.808;23.408;2023-03-04T03:04:11;94847.78;;;4.95;100.00
24280;BME280;12395;42.808;23.408;2023-03-04T03:06:37;94845.31;;;4.93;100.00
24280;BME280;12395;42.808;23.408;2023-03-04T03:09:03;94845.31;;;4.93;100.00
24280;BME280;12395;42.808;23.408;2023-03-04T03:11:28;94855.53;;;4.88;100.00
24280;BME280;12395;42.808;23.408;2023-03-04T03:13:54;94843.56;;;4.86;100.00
24280;BME280;12395;42.808;23.408;2023-03-04T03:16:19;94848.81;;;4.86;100.00
24280;BME280;12395;42.808;23.408;2023-03-04T03:18:44;94846.38;;;4.84;100.00
24280;BME280;12395;42.808;23.408;2023-03-04T03:21:10;94855.56;;;4.80;100.00
24280;BME280;12395;42.808;23.408;2023-03-04T03:23:35;94850.16;;;4.82;100.00
24280;BME280;12395;42.808;23.408;2023-03-04T03:26:00;94856.41;;;4.81;100.00
24280;BME280;12395;42.808;23.408;2023-03-04T03:28:26;94855.56;;;4.80;100.00
24280;BME280;12395;42.808;23.408;2023-03-04T03:30:51;94851.16;;;4.81;100.00
24280;BME280;12395;42.808;23.408;2023-03-04T03:33:16;94851.84;;;4.75;100.00
24280;BME280;12395;42.808;23.408;2023-03-04T03:35:41;94845.28;;;4.70;100.00
24280;BME280;12395;42.808;23.408;2023-03-04T03:38:07;94845.66;;;4.67;100.00
24280;BME280;12395;42.808;23.408;2023-03-04T03:40:32;94845.00;;;4.65;100.00
24280;BME280;12395;42.808;23.408;2023-03-04T03:42:57;94843.34;;;4.73;100.00
24280;BME280;12395;42.808;23.408;2023-03-04T03:45:23;94840.16;;;4.77;100.00
24280;BME280;12395;42.808;23.408;2023-03-04T03:47:48;94836.22;;;4.81;100.00
24280;BME280;12395;42.808;23.408;2023-03-04T03:50:13;94837.91;;;4.74;100.00
24280;BME280;12395;42.808;23.408;2023-03-04T03:52:38;94834.78;;;4.70;100.00
24280;BME280;12395;42.808;23.408;2023-03-04T03:55:04;94829.78;;;4.61;100.00
24280;BME280;12395;42.808;23.408;2023-03-04T03:57:29;94836.41;;;4.49;100.00
24280;BME280;12395;42.808;23.408;2023-03-04T03:59:55;94838.50;;;4.53;100.00
24280;BME280;12395;42.808;23.408;2023-03-04T04:02:20;94836.81;;;4.60;100.00
24280;BME280;12395;42.808;23.408;2023-03-04T04:04:46;94830.81;;;4.52;100.00
24280;BME280;12395;42.808;23.408;2023-03-04T04:07:11;94833.25;;;4.53;100.00
24280;BME280;12395;42.808;23.408;2023-03-04T04:09:36;94834.44;;;4.51;100.00
24280;BME280;12395;42.808;23.408;2023-03-04T04:12:03;94826.94;;;4.40;100.00
24280;BME280;12395;42.808;23.408;2023-03-04T04:14:28;94827.41;;;4.43;100.00
24280;BME280;12395;42.808;23.408;2023-03-04T04:16:54;94827.06;;;4.46;100.00
24280;BME280;12395;42.808;23.408;2023-03-04T04:19:19;94827.13;;;4.38;100.00
24280;BME280;12395;42.808;23.408;2023-03-04T04:21:45;94830.72;;;4.37;100.00
24280;BME280;12395;42.808;23.408;2023-03-04T04:24:11;94824.13;;;4.41;100.00
24280;BME280;12395;42.808;23.408;2023-03-04T04:26:36;94818.44;;;4.38;100.00
24280;BME280;12395;42.808;23.408;2023-03-04T04:29:01;94820.59;;;4.26;100.00
24280;BME280;12395;42.808;23.408;2023-03-04T04:31:27;94831.47;;;4.23;100.00
24280;BME280;12395;42.808;23.408;2023-03-04T04:33:52;94826.41;;;4.14;100.00
24280;BME280;12395;42.808;23.408;2023-03-04T04:36:17;94827.56;;;4.11;100.00
24280;BME280;12395;42.808;23.408;2023-03-04T04:38:42;94818.88;;;4.11;100.00
24280;BME280;12395;42.808;23.408;2023-03-04T04:41:27;94823.00;;;4.05;100.00
24280;BME280;12395;42.808;23.408;2023-03-04T04:43:54;94824.00;;;4.04;100.00
24280;BME280;12395;42.808;23.408;2023-03-04T04:46:19;94825.63;;;4.05;100.00
24280;BME280;12395;42.808;23.408;2023-03-04T04:48:44;94822.53;;;4.02;100.00
24280;BME280;12395;42.808;23.408;2023-03-04T04:51:10;94826.63;;;3.96;100.00
24280;BME280;12395;42.808;23.408;2023-03-04T04:53:36;94821.88;;;3.91;100.00
24280;BME280;12395;42.808;23.408;2023-03-04T04:56:11;94831.06;;;3.87;100.00
24280;BME280;12395;42.808;23.408;2023-03-04T04:58:37;94829.31;;;3.80;100.00
24280;BME280;12395;42.808;23.408;2023-03-04T05:01:03;94838.81;;;3.73;100.00
24280;BME280;12395;42.808;23.408;2023-03-04T05:03:29;94837.19;;;3.72;100.00
24280;BME280;12395;42.808;23.408;2023-03-04T05:05:54;94840.28;;;3.75;100.00
24280;BME280;12395;42.808;23.408;2023-03-04T05:08:20;94835.22;;;3.74;100.00
24280;BME280;12395;42.808;23.408;2023-03-04T05:10:46;94846.03;;;3.71;100.00
24280;BME280;12395;42.808;23.408;2023-03-04T05:13:12;94848.50;;;3.64;100.00
24280;BME280;12395;42.808;23.408;2023-03-04T05:15:37;94857.03;;;3.58;100.00
24280;BME280;12395;42.808;23.408;2023-03-04T05:18:03;94857.19;;;3.49;100.00
24280;BME280;12395;42.808;23.408;2023-03-04T05:20:28;94860.63;;;3.41;100.00
24280;BME280;12395;42.808;23.408;2023-03-04T05:22:53;94855.88;;;3.45;100.00
24280;BME280;12395;42.808;23.408;2023-03-04T05:25:19;94859.00;;;3.40;100.00
24280;BME280;12395;42.808;23.408;2023-03-04T05:27:44;94862.13;;;3.44;100.00
24280;BME280;12395;42.808;23.408;2023-03-04T05:30:09;94864.91;;;3.50;100.00
24280;BME280;12395;42.808;23.408;2023-03-04T05:32:35;94863.56;;;3.54;100.00
24280;BME280;12395;42.808;23.408;2023-03-04T05:35:00;94870.44;;;3.63;100.00
24280;BME280;12395;42.808;23.408;2023-03-04T05:37:25;94866.66;;;3.74;100.00
24280;BME280;12395;42.808;23.408;2023-03-04T05:39:51;94867.97;;;3.78;100.00
24280;BME280;12395;42.808;23.408;2023-03-04T05:42:16;94871.53;;;3.93;100.00
24280;BME280;12395;42.808;23.408;2023-03-04T05:44:41;94878.84;;;4.14;100.00
24280;BME280;12395;42.808;23.408;2023-03-04T05:47:06;94877.28;;;4.35;100.00
24280;BME280;12395;42.808;23.408;2023-03-04T05:49:32;94881.97;;;4.48;100.00
24280;BME280;12395;42.808;23.408;2023-03-04T05:51:57;94878.16;;;4.58;100.00
24280;BME280;12395;42.808;23.408;2023-03-04T05:54:22;94878.88;;;4.75;100.00
24280;BME280;12395;42.808;23.408;2023-03-04T05:56:47;94877.00;;;4.92;100.00
24280;BME280;12395;42.808;23.408;2023-03-04T05:59:13;94881.50;;;5.06;100.00
24280;BME280;12395;42.808;23.408;2023-03-04T06:01:44;94882.72;;;5.18;100.00
24280;BME280;12395;42.808;23.408;2023-03-04T06:04:09;94890.66;;;5.32;100.00
24280;BME280;12395;42.808;23.408;2023-03-04T06:06:34;94891.38;;;5.49;100.00
24280;BME280;12395;42.808;23.408;2023-03-04T06:09:00;94888.78;;;5.64;100.00
24280;BME280;12395;42.808;23.408;2023-03-04T06:11:26;94884.06;;;5.74;100.00
24280;BME280;12395;42.808;23.408;2023-03-04T06:13:51;94892.56;;;5.84;100.00
24280;BME280;12395;42.808;23.408;2023-03-04T06:16:16;94893.13;;;5.94;100.00
24280;BME280;12395;42.808;23.408;2023-03-04T06:18:42;94899.94;;;6.03;100.00
24280;BME280;12395;42.808;23.408;2023-03-04T06:21:07;94900.31;;;6.14;100.00
24280;BME280;12395;42.808;23.408;2023-03-04T06:23:32;94899.78;;;6.19;100.00
24280;BME280;12395;42.808;23.408;2023-03-04T06:25:58;94901.88;;;6.23;100.00
24280;BME280;12395;42.808;23.408;2023-03-04T06:28:24;94906.75;;;6.27;100.00
24280;BME280;12395;42.808;23.408;2023-03-04T06:30:53;94908.03;;;6.31;100.00
24280;BME280;12395;42.808;23.408;2023-03-04T06:33:19;94907.94;;;6.39;100.00
24280;BME280;12395;42.808;23.408;2023-03-04T06:35:44;94897.97;;;6.49;100.00
24280;BME280;12395;42.808;23.408;2023-03-04T06:38:10;94900.03;;;6.68;100.00
24280;BME280;12395;42.808;23.408;2023-03-04T06:40:36;94916.34;;;6.78;100.00
24280;BME280;12395;42.808;23.408;2023-03-04T06:43:01;94918.44;;;6.82;100.00
24280;BME280;12395;42.808;23.408;2023-03-04T06:45:26;94917.34;;;6.91;100.00
24280;BME280;12395;42.808;23.408;2023-03-04T06:47:51;94915.69;;;7.05;100.00
24280;BME280;12395;42.808;23.408;2023-03-04T06:50:17;94924.38;;;7.20;100.00
24280;BME280;12395;42.808;23.408;2023-03-04T06:52:42;94922.31;;;7.37;100.00
24280;BME280;12395;42.808;23.408;2023-03-04T06:55:07;94920.88;;;7.55;100.00
24280;BME280;12395;42.808;23.408;2023-03-04T06:57:33;94923.38;;;7.63;100.00
24280;BME280;12395;42.808;23.408;2023-03-04T06:59:59;94921.25;;;7.73;100.00
24280;BME280;12395;42.808;23.408;2023-03-04T07:02:24;94918.47;;;7.82;100.00
24280;BME280;12395;42.808;23.408;2023-03-04T07:04:49;94918.47;;;7.82;100.00
24280;BME280;12395;42.808;23.408;2023-03-04T07:07:15;94917.59;;;7.74;100.00
24280;BME280;12395;42.808;23.408;2023-03-04T07:09:40;94914.59;;;7.77;100.00
24280;BME280;12395;42.808;23.408;2023-03-04T07:12:05;94920.53;;;7.86;100.00
24280;BME280;12395;42.808;23.408;2023-03-04T07:14:30;94920.19;;;7.96;100.00
24280;BME280;12395;42.808;23.408;2023-03-04T07:16:56;94929.03;;;8.09;99.79
24280;BME280;12395;42.808;23.408;2023-03-04T07:19:21;94926.03;;;8.12;99.53
24280;BME280;12395;42.808;23.408;2023-03-04T07:21:46;94928.13;;;7.96;98.80
24280;BME280;12395;42.808;23.408;2023-03-04T07:24:13;94928.81;;;7.83;99.35
24280;BME280;12395;42.808;23.408;2023-03-04T07:26:38;94928.03;;;7.83;100.00
24280;BME280;12395;42.808;23.408;2023-03-04T07:29:04;94931.91;;;7.87;100.00
24280;BME280;12395;42.808;23.408;2023-03-04T07:31:30;94929.44;;;7.85;100.00
24280;BME280;12395;42.808;23.408;2023-03-04T07:33:57;94932.09;;;7.85;100.00
24280;BME280;12395;42.808;23.408;2023-03-04T07:36:23;94932.72;;;7.87;100.00
24280;BME280;12395;42.808;23.408;2023-03-04T07:38:48;94931.78;;;7.95;100.00
24280;BME280;12395;42.808;23.408;2023-03-04T07:41:14;94927.94;;;7.97;100.00
24280;BME280;12395;42.808;23.408;2023-03-04T07:43:39;94933.34;;;8.10;100.00
24280;BME280;12395;42.808;23.408;2023-03-04T07:46:05;94937.22;;;8.14;99.88
24280;BME280;12395;42.808;23.408;2023-03-04T07:48:30;94929.78;;;8.24;100.00
24280;BME280;12395;42.808;23.408;2023-03-04T07:51:06;94931.97;;;8.42;98.41
24280;BME280;12395;42.808;23.408;2023-03-04T07:53:31;94931.25;;;8.61;98.45
24280;BME280;12395;42.808;23.408;2023-03-04T07:55:57;94934.81;;;8.81;96.84
24280;BME280;12395;42.808;23.408;2023-03-04T07:58:22;94928.97;;;8.92;94.76
24280;BME280;12395;42.808;23.408;2023-03-04T08:00:47;94930.19;;;8.90;93.34
24280;BME280;12395;42.808;23.408;2023-03-04T08:03:13;94930.00;;;8.91;93.03
24280;BME280;12395;42.808;23.408;2023-03-04T08:05:38;94936.72;;;8.94;93.08
24280;BME280;12395;42.808;23.408;2023-03-04T08:08:04;94940.03;;;9.02;93.27
24280;BME280;12395;42.808;23.408;2023-03-04T08:10:29;94935.91;;;8.93;91.88
24280;BME280;12395;42.808;23.408;2023-03-04T08:12:54;94944.47;;;9.02;92.16
24280;BME280;12395;42.808;23.408;2023-03-04T08:15:19;94942.50;;;9.17;92.03
24280;BME280;12395;42.808;23.408;2023-03-04T08:17:44;94930.78;;;9.46;89.56
24280;BME280;12395;42.808;23.408;2023-03-04T08:20:10;94939.59;;;9.66;85.91
24280;BME280;12395;42.808;23.408;2023-03-04T08:22:35;94940.03;;;9.76;85.60
24280;BME280;12395;42.808;23.408;2023-03-04T08:25:01;94942.28;;;9.79;83.56
24280;BME280;12395;42.808;23.408;2023-03-04T08:27:26;94940.44;;;9.79;82.27
24280;BME280;12395;42.808;23.408;2023-03-04T08:29:51;94929.63;;;9.68;83.45
24280;BME280;12395;42.808;23.408;2023-03-04T08:32:16;94941.38;;;9.46;82.25
24280;BME280;12395;42.808;23.408;2023-03-04T08:34:42;94929.53;;;9.28;81.77
24280;BME280;12395;42.808;23.408;2023-03-04T08:37:07;94934.13;;;9.07;81.66
24280;BME280;12395;42.808;23.408;2023-03-04T08:39:32;94932.16;;;8.81;83.59
24280;BME280;12395;42.808;23.408;2023-03-04T08:41:59;94929.25;;;8.63;84.89
24280;BME280;12395;42.808;23.408;2023-03-04T08:44:24;94922.91;;;8.57;85.79
24280;BME280;12395;42.808;23.408;2023-03-04T08:46:50;94931.38;;;8.46;84.75
24280;BME280;12395;42.808;23.408;2023-03-04T08:49:15;94929.06;;;8.37;84.60
24280;BME280;12395;42.808;23.408;2023-03-04T08:51:40;94922.59;;;8.39;85.59
24280;BME280;12395;42.808;23.408;2023-03-04T08:54:06;94918.97;;;8.47;86.42
24280;BME280;12395;42.808;23.408;2023-03-04T08:56:31;94921.03;;;8.51;86.75
24280;BME280;12395;42.808;23.408;2023-03-04T08:58:57;94916.63;;;8.59;86.74
24280;BME280;12395;42.808;23.408;2023-03-04T09:01:22;94922.56;;;8.67;85.23
24280;BME280;12395;42.808;23.408;2023-03-04T09:03:47;94916.50;;;8.73;84.87
24280;BME280;12395;42.808;23.408;2023-03-04T09:06:13;94917.09;;;8.75;83.81
24280;BME280;12395;42.808;23.408;2023-03-04T09:08:39;94917.16;;;8.82;84.49
24280;BME280;12395;42.808;23.408;2023-03-04T09:11:04;94913.72;;;8.88;84.79
24280;BME280;12395;42.808;23.408;2023-03-04T09:13:30;94917.00;;;8.96;84.80
24280;BME280;12395;42.808;23.408;2023-03-04T09:15:55;94907.88;;;8.99;83.25
24280;BME280;12395;42.808;23.408;2023-03-04T09:18:21;94908.31;;;9.09;83.57
24280;BME280;12395;42.808;23.408;2023-03-04T09:20:47;94903.03;;;9.15;83.46
24280;BME280;12395;42.808;23.408;2023-03-04T09:23:14;94905.72;;;9.22;83.28
24280;BME280;12395;42.808;23.408;2023-03-04T09:25:39;94906.34;;;9.30;82.01
24280;BME280;12395;42.808;23.408;2023-03-04T09:28:05;94915.13;;;9.38;80.95
24280;BME280;12395;42.808;23.408;2023-03-04T09:30:30;94909.63;;;9.46;81.12
24280;BME280;12395;42.808;23.408;2023-03-04T09:32:56;94904.34;;;9.46;81.21
24280;BME280;12395;42.808;23.408;2023-03-04T09:35:21;94910.63;;;9.31;78.32
24280;BME280;12395;42.808;23.408;2023-03-04T09:37:47;94911.75;;;9.03;79.43
24280;BME280;12395;42.808;23.408;2023-03-04T09:40:17;94901.81;;;9.11;80.29
24280;BME280;12395;42.808;23.408;2023-03-04T09:42:51;94907.88;;;8.99;79.84
24280;BME280;12395;42.808;23.408;2023-03-04T09:45:19;94903.88;;;9.16;81.21
24280;BME280;12395;42.808;23.408;2023-03-04T09:47:46;94899.06;;;9.46;80.47
24280;BME280;12395;42.808;23.408;2023-03-04T09:50:12;94891.78;;;9.67;80.27
24280;BME280;12395;42.808;23.408;2023-03-04T09:52:51;94891.41;;;9.90;79.73
24280;BME280;12395;42.808;23.408;2023-03-04T09:56:04;94895.28;;;10.07;78.03
24280;BME280;12395;42.808;23.408;2023-03-04T10:00:38;94890.63;;;10.22;76.20
24280;BME280;12395;42.808;23.408;2023-03-04T10:05:36;94888.97;;;10.15;75.42
24280;BME280;12395;42.808;23.408;2023-03-04T10:10:40;94883.66;;;10.08;74.50
24280;BME280;12395;42.808;23.408;2023-03-04T10:13:10;94886.50;;;10.00;75.15
24280;BME280;12395;42.808;23.408;2023-03-04T10:15:39;94885.28;;;9.83;74.26
24280;BME280;12395;42.808;23.408;2023-03-04T10:18:23;94882.63;;;9.63;75.24
24280;BME280;12395;42.808;23.408;2023-03-04T10:21:01;94875.09;;;9.54;76.42
24280;BME280;12395;42.808;23.408;2023-03-04T10:23:28;94871.03;;;9.51;77.99
24280;BME280;12395;42.808;23.408;2023-03-04T10:25:55;94869.38;;;9.44;78.16
24280;BME280;12395;42.808;23.408;2023-03-04T10:28:24;94867.69;;;9.23;75.79
24280;BME280;12395;42.808;23.408;2023-03-04T10:33:29;94852.97;;;8.94;78.38
24280;BME280;12395;42.808;23.408;2023-03-04T10:36:05;94853.38;;;8.85;78.65
24280;BME280;12395;42.808;23.408;2023-03-04T10:38:35;94849.28;;;8.82;79.97
24280;BME280;12395;42.808;23.408;2023-03-04T10:41:00;94847.47;;;8.83;80.01
24280;BME280;12395;42.808;23.408;2023-03-04T10:43:34;94841.75;;;8.86;81.37
24280;BME280;12395;42.808;23.408;2023-03-04T10:46:00;94834.25;;;8.83;81.21
24280;BME280;12395;42.808;23.408;2023-03-04T10:48:26;94826.38;;;8.96;80.81
24280;BME280;12395;42.808;23.408;2023-03-04T10:50:52;94831.06;;;9.07;79.53
24280;BME280;12395;42.808;23.408;2023-03-04T10:53:23;94820.50;;;9.20;78.90
24280;BME280;12395;42.808;23.408;2023-03-04T10:55:49;94816.84;;;9.14;78.87
24280;BME280;12395;42.808;23.408;2023-03-04T10:58:15;94817.69;;;9.21;79.01
24280;BME280;12395;42.808;23.408;2023-03-04T11:00:43;94814.88;;;9.43;78.59
24280;BME280;12395;42.808;23.408;2023-03-04T11:06:02;94793.28;;;9.72;79.58
24280;BME280;12395;42.808;23.408;2023-03-04T11:08:28;94803.66;;;9.86;77.38
24280;BME280;12395;42.808;23.408;2023-03-04T11:10:53;94792.47;;;9.91;75.52
24280;BME280;12395;42.808;23.408;2023-03-04T11:13:20;94795.31;;;9.96;75.58
24280;BME280;12395;42.808;23.408;2023-03-04T11:15:56;94792.66;;;10.02;74.85
24280;BME280;12395;42.808;23.408;2023-03-04T11:21:06;94784.88;;;10.34;74.91
24280;BME280;12395;42.808;23.408;2023-03-04T11:26:01;94782.88;;;10.73;73.67
24280;BME280;12395;42.808;23.408;2023-03-04T11:28:51;94784.66;;;10.86;74.55
24280;BME280;12395;42.808;23.408;2023-03-04T11:31:17;94776.44;;;11.01;72.37
24280;BME280;12395;42.808;23.408;2023-03-04T11:33:46;94770.00;;;11.15;70.97
24280;BME280;12395;42.808;23.408;2023-03-04T11:39:34;94764.19;;;11.31;68.59
24280;BME280;12395;42.808;23.408;2023-03-04T11:42:02;94758.84;;;11.37;67.45
24280;BME280;12395;42.808;23.408;2023-03-04T11:44:29;94755.47;;;11.48;67.50
24280;BME280;12395;42.808;23.408;2023-03-04T11:52:26;94750.06;;;11.37;69.89
24280;BME280;12395;42.808;23.408;2023-03-04T11:55:08;94738.78;;;11.48;71.18
24280;BME280;12395;42.808;23.408;2023-03-04T12:01:27;94739.47;;;11.37;70.09
24280;BME280;12395;42.808;23.408;2023-03-04T12:13:38;94730.03;;;11.90;68.20
24280;BME280;12395;42.808;23.408;2023-03-04T12:26:48;94711.38;;;12.15;63.68
24280;BME280;12395;42.808;23.408;2023-03-04T12:31:54;94701.72;;;12.20;66.36
24280;BME280;12395;42.808;23.408;2023-03-04T12:34:28;94702.00;;;12.30;65.11
24280;BME280;12395;42.808;23.408;2023-03-04T12:37:00;94695.22;;;12.34;65.69
24280;BME280;12395;42.808;23.408;2023-03-04T12:47:49;94689.84;;;12.23;67.08
24280;BME280;12395;42.808;23.408;2023-03-04T12:50:30;94683.72;;;12.22;68.16
24280;BME280;12395;42.808;23.408;2023-03-04T12:53:11;94680.25;;;12.22;68.01
24280;BME280;12395;42.808;23.408;2023-03-04T12:55:39;94680.19;;;11.92;67.13
24280;BME280;12395;42.808;23.408;2023-03-04T12:58:05;94674.59;;;11.82;67.81
24280;BME280;12395;42.808;23.408;2023-03-04T13:00:43;94677.50;;;11.74;68.64
24280;BME280;12395;42.808;23.408;2023-03-04T13:03:20;94674.28;;;11.47;69.42
24280;BME280;12395;42.808;23.408;2023-03-04T13:10:44;94656.94;;;11.27;72.94
24280;BME280;12395;42.808;23.408;2023-03-04T13:13:43;94655.88;;;11.28;72.83
24280;BME280;12395;42.808;23.408;2023-03-04T13:16:02;94654.88;;;11.29;72.66
24280;BME280;12395;42.808;23.408;2023-03-04T13:18:35;94650.16;;;11.31;71.52
24280;BME280;12395;42.808;23.408;2023-03-04T13:21:04;94646.31;;;11.27;72.20
24280;BME280;12395;42.808;23.408;2023-03-04T13:23:30;94647.97;;;11.21;71.05
24280;BME280;12395;42.808;23.408;2023-03-04T13:28:35;94644.97;;;11.18;72.64
24280;BME280;12395;42.808;23.408;2023-03-04T13:33:38;94631.81;;;11.05;72.66
24280;BME280;12395;42.808;23.408;2023-03-04T13:36:27;94635.06;;;11.07;73.64
24280;BME280;12395;42.808;23.408;2023-03-04T13:39:35;94636.63;;;11.14;73.99
24280;BME280;12395;42.808;23.408;2023-03-04T13:41:45;94637.16;;;10.98;73.32
24280;BME280;12395;42.808;23.408;2023-03-04T13:47:19;94624.03;;;11.10;74.84
24280;BME280;12395;42.808;23.408;2023-03-04T13:49:45;94624.75;;;11.17;73.82
24280;BME280;12395;42.808;23.408;2023-03-04T13:57:46;94615.47;;;11.08;74.61
24280;BME280;12395;42.808;23.408;2023-03-04T14:00:12;94619.69;;;10.91;74.56
24280;BME280;12395;42.808;23.408;2023-03-04T14:02:37;94611.72;;;10.91;76.10
24280;BME280;12395;42.808;23.408;2023-03-04T14:05:03;94607.28;;;10.84;77.17
24280;BME280;12395;42.808;23.408;2023-03-04T14:07:29;94610.81;;;10.78;76.62
24280;BME280;12395;42.808;23.408;2023-03-04T14:09:56;94606.59;;;10.71;75.78
24280;BME280;12395;42.808;23.408;2023-03-04T14:12:22;94605.66;;;10.59;76.55
24280;BME280;12395;42.808;23.408;2023-03-04T14:14:49;94606.97;;;10.50;77.16